Time;durP1;ratioP1;P1;durP2;ratioP2;P2;SDS_P1;SDS_P2;PMS_P1;PMS_P2;Temp;Humidity;BMP_temperature;BMP_pressure;BME280_temperature;BME280_humidity;BME280_pressure;Samples;Min_cycle;Max_cycle;Signal;HPM_P1;HPM_P2
2022/04/30 00:01:31;;;;;;;11.20;5.55;;;11.40;99.90;;;;;;5029716;28;20530;-87
2022/04/30 00:04:41;;;;;;;;;;;;;;;;;;;;;
2022/04/30 00:10:56;;;;;;;9.38;3.95;;;11.30;99.90;;;;;;5046032;28;20847;-87
2022/04/30 00:13:58;;;;;;;9.23;5.68;;;11.10;99.90;;;;;;5030425;28;20053;-86
2022/04/30 00:17:50;;;;;;;;;;;;;;;;;;;;;
2022/04/30 00:23:40;;;;;;;9.77;6.32;;;10.90;99.90;;;;;;5025835;28;20041;-86
2022/04/30 00:26:32;;;;;;;16.73;6.55;;;11.00;99.90;;;;;;5027787;28;20635;-87
2022/04/30 00:29:35;;;;;;;14.10;6.60;;;11.00;99.90;;;;;;5057293;28;20887;-86
2022/04/30 00:32:39;;;;;;;;;;;10.90;99.90;;;;;;5072784;28;20049;-88
2022/04/30 00:35:54;;;;;;;;;;;;;;;;;;;;;
2022/04/30 00:38:52;;;;;;;10.02;6.05;;;10.90;99.90;;;;;;5073006;28;41358;-87
2022/04/30 00:41:56;;;;;;;12.07;6.85;;;10.90;99.90;;;;;;5073027;28;20047;-86
2022/04/30 00:44:53;;;;;;;11.52;6.18;;;10.80;99.90;;;;;;5093450;27;20492;-78
2022/04/30 00:47:19;;;;;;;9.25;4.78;;;10.80;99.90;;;;;;5093419;27;20040;-78
2022/04/30 00:49:46;;;;;;;9.32;5.53;;;10.70;99.90;;;;;;5108867;27;20579;-79
2022/04/30 00:52:15;;;;;;;10.65;6.70;;;10.70;99.90;;;;;;5094887;27;20075;-79
2022/04/30 00:54:42;;;;;;;14.05;7.30;;;10.60;99.90;;;;;;5090968;27;20043;-79
2022/04/30 00:57:13;;;;;;;13.48;6.43;;;10.60;99.90;;;;;;5092612;27;20530;-79
2022/04/30 00:59:40;;;;;;;12.32;6.88;;;10.60;99.90;;;;;;5092799;27;20036;-78
2022/04/30 01:02:10;;;;;;;15.30;7.28;;;10.50;99.90;;;;;;5095665;27;20079;-77
2022/04/30 01:04:35;;;;;;;14.70;6.95;;;10.50;99.90;;;;;;5096258;27;20032;-79
2022/04/30 01:07:09;;;;;;;12.48;6.60;;;10.40;99.90;;;;;;5094366;27;20117;-77
2022/04/30 01:09:39;;;;;;;13.32;7.63;;;10.40;99.90;;;;;;5096842;27;20032;-78
2022/04/30 01:12:09;;;;;;;13.52;6.00;;;10.30;99.90;;;;;;5093801;27;20522;-79
2022/04/30 01:14:36;;;;;;;14.27;8.30;;;10.20;99.90;;;;;;5078804;27;20059;-79
2022/04/30 01:17:06;;;;;;;10.40;6.00;;;10.20;99.90;;;;;;5099199;27;20948;-79
2022/04/30 01:19:36;;;;;;;14.15;6.63;;;10.20;99.90;;;;;;5096390;27;20752;-79
2022/04/30 01:22:08;;;;;;;12.55;6.60;;;10.20;99.90;;;;;;5113107;27;20517;-79
2022/04/30 01:24:36;;;;;;;12.73;5.88;;;10.20;99.90;;;;;;5095323;27;20595;-79
2022/04/30 01:27:05;;;;;;;14.30;7.57;;;10.10;99.90;;;;;;5096984;27;20040;-79
2022/04/30 01:29:32;;;;;;;18.10;9.73;;;10.20;99.90;;;;;;5090596;27;20048;-79
2022/04/30 01:37:36;;;;;;;10.07;5.28;;;10.00;99.90;;;;;;5096668;27;20059;-79
2022/04/30 01:40:06;;;;;;;19.00;8.48;;;10.00;99.90;;;;;;5092542;27;20238;-78
2022/04/30 01:42:40;;;;;;;15.27;8.25;;;10.00;99.90;;;;;;5076807;27;20052;-79
2022/04/30 01:45:08;;;;;;;13.05;6.97;;;10.00;99.90;;;;;;5090818;27;20094;-78
2022/04/30 01:47:36;;;;;;;18.38;7.63;;;10.00;99.90;;;;;;5093395;27;20071;-79
2022/04/30 01:50:03;;;;;;;12.52;7.10;;;9.90;99.90;;;;;;5092601;27;20646;-79
2022/04/30 01:52:30;;;;;;;16.20;9.02;;;9.90;99.90;;;;;;5092895;27;20692;-79
2022/04/30 01:54:57;;;;;;;15.93;6.65;;;9.90;99.90;;;;;;5103402;27;20154;-79
2022/04/30 01:57:23;;;;;;;17.20;8.90;;;9.90;99.90;;;;;;5082164;28;20042;-79
2022/04/30 02:00:20;;;;;;;19.70;8.52;;;9.80;99.90;;;;;;5080744;28;20775;-79
2022/04/30 02:02:48;;;;;;;17.40;8.98;;;9.80;99.90;;;;;;5080249;28;21646;-78
2022/04/30 02:05:14;;;;;;;10.45;6.38;;;9.80;99.90;;;;;;5084079;28;20119;-79
2022/04/30 02:08:00;;;;;;;18.23;7.85;;;9.70;99.90;;;;;;5081380;28;20036;-79
2022/04/30 02:10:27;;;;;;;19.95;8.32;;;9.70;99.90;;;;;;5080999;28;20048;-79
2022/04/30 02:12:54;;;;;;;18.58;8.32;;;9.70;99.90;;;;;;5080553;28;20040;-78
2022/04/30 02:15:21;;;;;;;10.93;6.68;;;9.70;99.90;;;;;;5079709;28;20086;-79
2022/04/30 02:17:47;;;;;;;17.33;8.90;;;9.60;99.90;;;;;;5079577;28;20123;-79
2022/04/30 02:20:18;;;;;;;15.88;6.95;;;9.60;99.90;;;;;;5081290;28;20040;-78
2022/04/30 02:22:45;;;;;;;14.68;7.57;;;9.60;99.90;;;;;;5081554;28;20040;-78
2022/04/30 02:25:12;;;;;;;19.42;7.93;;;9.50;99.90;;;;;;5079021;28;20086;-78
2022/04/30 02:27:51;;;;;;;13.00;6.68;;;9.50;99.90;;;;;;5066141;28;20132;-78
2022/04/30 02:30:18;;;;;;;18.20;7.90;;;9.60;99.90;;;;;;5095338;27;20053;-79
2022/04/30 02:32:50;;;;;;;17.42;9.18;;;9.60;99.90;;;;;;5080136;28;20136;-80
2022/04/30 02:35:18;;;;;;;15.95;6.30;;;9.50;99.90;;;;;;5081518;28;20054;-79
2022/04/30 02:37:45;;;;;;;16.60;8.45;;;9.50;99.90;;;;;;5077393;28;20062;-78
2022/04/30 02:40:18;;;;;;;15.57;8.35;;;9.50;99.90;;;;;;5079913;28;20037;-78
2022/04/30 02:42:44;;;;;;;19.67;9.13;;;9.50;99.90;;;;;;5079493;28;20612;-79
2022/04/30 02:45:14;;;;;;;15.70;8.75;;;9.40;99.90;;;;;;5097374;27;20095;-79
2022/04/30 02:47:42;;;;;;;15.90;7.55;;;9.50;99.90;;;;;;5079451;28;20496;-79
2022/04/30 02:50:10;;;;;;;23.63;9.80;;;9.50;99.90;;;;;;5079711;28;20570;-78
2022/04/30 02:52:37;;;;;;;21.65;11.10;;;9.50;99.90;;;;;;5080537;28;20051;-78
2022/04/30 02:55:04;;;;;;;23.08;10.07;;;9.40;99.90;;;;;;5076670;28;20944;-79
2022/04/30 02:59:53;;;;;;;22.27;10.48;;;9.40;99.90;;;;;;5078999;28;20070;-78
2022/04/30 03:00:34;;;;;;;20.42;9.32;;;9.40;99.90;;;;;;5080063;28;20530;-79
2022/04/30 03:03:00;;;;;;;20.58;9.32;;;9.40;99.90;;;;;;5082309;28;20044;-79
2022/04/30 03:05:26;;;;;;;22.90;10.23;;;9.40;99.90;;;;;;5074071;28;20037;-79
2022/04/30 03:07:52;;;;;;;19.55;9.10;;;9.30;99.90;;;;;;5079740;28;20496;-79
2022/04/30 03:10:19;;;;;;;18.27;9.38;;;9.30;99.90;;;;;;5081454;28;20113;-78
2022/04/30 03:12:45;;;;;;;18.20;9.40;;;9.30;99.90;;;;;;5095286;27;20065;-79
2022/04/30 03:15:11;;;;;;;11.45;6.25;;;9.30;99.90;;;;;;5078676;28;20591;-78
2022/04/30 03:23:06;;;;;;;18.50;9.65;;;9.20;99.90;;;;;;5079264;28;20446;-79
2022/04/30 03:25:32;;;;;;;12.45;6.72;;;9.10;99.90;;;;;;5080167;28;20040;-78
2022/04/30 03:27:59;;;;;;;15.95;8.88;;;9.10;99.90;;;;;;5076712;28;20044;-79
2022/04/30 03:30:24;;;;;;;20.92;9.10;;;9.00;99.90;;;;;;5078913;28;20051;-79
2022/04/30 03:32:50;;;;;;;14.05;8.20;;;9.00;99.90;;;;;;5079965;28;20675;-79
2022/04/30 03:35:16;;;;;;;18.15;8.65;;;9.00;99.90;;;;;;5079316;28;20076;-79
2022/04/30 03:37:42;;;;;;;15.93;8.27;;;8.90;99.90;;;;;;5079435;28;20387;-79
2022/04/30 03:40:08;;;;;;;17.00;8.80;;;8.90;99.90;;;;;;5077204;28;20051;-79
2022/04/30 03:42:34;;;;;;;16.08;8.05;;;8.90;99.90;;;;;;5077920;28;20032;-79
2022/04/30 03:45:03;;;;;;;16.15;7.60;;;8.90;99.90;;;;;;5078209;28;20040;-79
2022/04/30 03:47:29;;;;;;;22.75;9.60;;;8.90;99.90;;;;;;5076910;28;20044;-79
2022/04/30 03:49:55;;;;;;;14.35;8.02;;;9.00;99.90;;;;;;5076619;28;20439;-78
2022/04/30 03:52:21;;;;;;;18.45;10.13;;;8.90;99.90;;;;;;5094602;27;20137;-79
2022/04/30 03:54:47;;;;;;;17.90;8.77;;;8.90;99.90;;;;;;5073333;28;20037;-79
2022/04/30 03:57:13;;;;;;;17.67;8.32;;;8.90;99.90;;;;;;5080868;28;20040;-80
2022/04/30 03:59:39;;;;;;;16.48;8.20;;;8.90;99.90;;;;;;5081349;28;20032;-79
2022/04/30 04:02:06;;;;;;;13.38;5.45;;;8.90;99.90;;;;;;5076933;28;20048;-79
2022/04/30 04:04:32;;;;;;;16.65;7.63;;;8.80;99.90;;;;;;5078461;28;20652;-79
2022/04/30 04:06:58;;;;;;;18.58;8.48;;;8.80;99.90;;;;;;5077266;28;20044;-79
2022/04/30 04:09:24;;;;;;;20.45;9.10;;;8.80;99.90;;;;;;5077618;28;20144;-79
2022/04/30 04:11:50;;;;;;;19.77;10.05;;;8.80;99.90;;;;;;5079511;28;20056;-78
2022/04/30 04:19:44;;;;;;;22.42;9.18;;;8.80;99.90;;;;;;5078462;28;20045;-78
2022/04/30 04:22:09;;;;;;;19.73;8.50;;;8.80;99.90;;;;;;5078349;28;20044;-79
2022/04/30 04:27:20;;;;;;;21.27;9.77;;;8.90;99.90;;;;;;5079812;28;20063;-78
2022/04/30 04:29:46;;;;;;;18.85;8.65;;;8.90;99.90;;;;;;5080458;28;20052;-78
2022/04/30 04:32:12;;;;;;;19.05;8.65;;;8.80;99.90;;;;;;5076470;28;20162;-78
2022/04/30 04:34:38;;;;;;;21.35;9.10;;;8.80;99.90;;;;;;5074440;28;20134;-79
2022/04/30 04:37:04;;;;;;;20.70;8.90;;;8.80;99.90;;;;;;5077047;28;20045;-79
2022/04/30 04:39:30;;;;;;;20.90;10.48;;;8.80;99.90;;;;;;5095650;27;20090;-79
2022/04/30 04:41:56;;;;;;;21.77;8.48;;;8.80;99.90;;;;;;5078818;28;20044;-79
2022/04/30 04:44:22;;;;;;;11.10;6.32;;;8.80;99.90;;;;;;5078424;28;20060;-79
2022/04/30 04:46:48;;;;;;;15.93;9.38;;;8.80;99.90;;;;;;5078711;28;20613;-79
2022/04/30 04:49:14;;;;;;;20.95;8.80;;;8.80;99.90;;;;;;5080325;28;20040;-79
2022/04/30 04:51:40;;;;;;;20.15;8.77;;;8.70;99.90;;;;;;5077653;28;20112;-80
2022/04/30 04:54:06;;;;;;;20.50;10.23;;;8.80;99.90;;;;;;5075337;28;20050;-79
2022/04/30 04:56:32;;;;;;;20.88;8.27;;;8.80;99.90;;;;;;5078260;28;20043;-80
2022/04/30 04:58:58;;;;;;;16.92;8.48;;;8.80;99.90;;;;;;5079068;28;20567;-79
2022/04/30 05:01:24;;;;;;;14.70;8.65;;;8.70;99.90;;;;;;5075321;28;20153;-79
2022/04/30 05:03:51;;;;;;;22.05;8.63;;;8.80;99.90;;;;;;5077247;28;20211;-80
2022/04/30 05:06:17;;;;;;;21.08;9.73;;;8.80;99.90;;;;;;5076762;28;20048;-80
2022/04/30 05:08:43;;;;;;;18.83;8.35;;;8.80;99.90;;;;;;5077287;28;20048;-81
2022/04/30 05:11:09;;;;;;;20.27;8.98;;;8.80;99.90;;;;;;5076848;28;20134;-80
2022/04/30 05:13:35;;;;;;;18.52;9.68;;;8.80;99.90;;;;;;5076376;28;21084;-79
2022/04/30 05:16:01;;;;;;;12.52;7.43;;;8.80;99.90;;;;;;5076977;28;20036;-78
2022/04/30 05:18:27;;;;;;;18.15;9.27;;;8.90;99.90;;;;;;5078771;28;20524;-78
2022/04/30 05:20:53;;;;;;;22.52;8.63;;;8.90;99.90;;;;;;5077120;28;20051;-78
2022/04/30 05:23:19;;;;;;;12.45;6.32;;;8.90;99.90;;;;;;5075833;28;21215;-79
2022/04/30 05:25:45;;;;;;;16.48;7.57;;;8.80;99.90;;;;;;5075547;28;20502;-78
2022/04/30 05:28:11;;;;;;;16.38;8.18;;;8.80;99.90;;;;;;5080003;28;20123;-78
2022/04/30 05:30:38;;;;;;;18.73;9.15;;;8.70;99.90;;;;;;5078161;27;20044;-79
2022/04/30 05:33:04;;;;;;;20.23;9.98;;;8.80;99.90;;;;;;5083075;28;20083;-79
2022/04/30 05:35:29;;;;;;;20.42;10.38;;;8.80;99.90;;;;;;5081279;28;20044;-79
2022/04/30 05:37:55;;;;;;;16.65;8.52;;;8.90;99.90;;;;;;5079165;28;20506;-79
2022/04/30 05:40:21;;;;;;;17.50;8.07;;;8.90;99.90;;;;;;5080257;28;20052;-77
2022/04/30 05:42:47;;;;;;;21.42;8.57;;;9.00;99.90;;;;;;5083693;28;20083;-78
2022/04/30 05:45:13;;;;;;;13.98;8.57;;;8.90;99.90;;;;;;5078065;28;20409;-79
2022/04/30 05:47:39;;;;;;;16.50;9.00;;;9.00;99.90;;;;;;5065550;28;20067;-79
2022/04/30 05:50:06;;;;;;;14.80;7.50;;;8.90;99.90;;;;;;5079413;28;20671;-79
2022/04/30 05:52:34;;;;;;;23.42;9.23;;;8.90;99.90;;;;;;5077718;28;20116;-79
2022/04/30 05:55:02;;;;;;;18.98;8.05;;;8.90;99.90;;;;;;5079621;28;20071;-78
2022/04/30 05:57:28;;;;;;;18.38;9.05;;;9.00;99.90;;;;;;5081694;28;20083;-79
2022/04/30 05:59:55;;;;;;;20.15;8.30;;;9.10;99.90;;;;;;5080713;28;20047;-79
2022/04/30 06:02:21;;;;;;;19.00;7.47;;;9.10;99.90;;;;;;5078619;28;20926;-79
2022/04/30 06:04:47;;;;;;;16.90;9.15;;;9.20;99.90;;;;;;5096843;27;20113;-79
2022/04/30 06:07:13;;;;;;;15.45;7.57;;;9.20;99.90;;;;;;5080142;28;20502;-79
2022/04/30 06:09:39;;;;;;;16.98;7.97;;;9.30;99.90;;;;;;5078526;28;20048;-79
2022/04/30 06:12:05;;;;;;;14.10;7.40;;;9.40;99.90;;;;;;5080276;28;20167;-79
2022/04/30 06:14:31;;;;;;;15.13;7.20;;;9.40;99.90;;;;;;5076286;28;20072;-80
2022/04/30 06:16:58;;;;;;;19.05;8.50;;;9.50;99.90;;;;;;5077919;28;20075;-79
2022/04/30 06:19:24;;;;;;;19.42;8.20;;;9.50;99.90;;;;;;5065886;28;20051;-80
2022/04/30 06:21:50;;;;;;;17.73;8.40;;;9.50;99.90;;;;;;5079259;28;20040;-80
2022/04/30 06:24:17;;;;;;;19.00;9.05;;;9.60;99.90;;;;;;5081232;28;20044;-81
2022/04/30 06:26:44;;;;;;;20.85;8.20;;;9.80;99.90;;;;;;5079863;28;20062;-80
2022/04/30 06:29:10;;;;;;;17.08;9.23;;;9.90;99.90;;;;;;5080993;28;20556;-80
2022/04/30 06:31:36;;;;;;;18.92;10.38;;;9.90;99.90;;;;;;5080768;28;20536;-80
2022/04/30 06:34:02;;;;;;;18.73;9.10;;;10.10;99.90;;;;;;5078207;28;20044;-80
2022/04/30 06:36:29;;;;;;;19.67;9.40;;;10.10;99.90;;;;;;5078865;28;20051;-80
2022/04/30 06:38:55;;;;;;;21.63;10.20;;;10.10;99.90;;;;;;5080825;28;20059;-81
2022/04/30 06:41:21;;;;;;;18.25;10.05;;;9.90;99.90;;;;;;5079177;28;20925;-80
2022/04/30 06:43:49;;;;;;;17.50;8.38;;;10.10;99.90;;;;;;5079632;28;20060;-80
2022/04/30 06:46:15;;;;;;;25.15;11.10;;;10.10;99.90;;;;;;5078419;28;20040;-79
2022/04/30 06:48:41;;;;;;;19.25;8.80;;;10.20;99.90;;;;;;5079647;28;20581;-81
2022/04/30 06:51:06;;;;;;;18.35;10.52;;;10.30;99.90;;;;;;5076958;28;20067;-81
2022/04/30 06:59:04;;;;;;;23.20;10.48;;;10.60;99.90;;;;;;5078350;28;20044;-81
2022/04/30 07:04:17;;;;;;;17.92;9.13;;;10.70;99.90;;;;;;5079930;28;20067;-81
2022/04/30 07:06:43;;;;;;;20.83;10.38;;;10.80;99.90;;;;;;5078440;28;20037;-78
2022/04/30 07:09:09;;;;;;;22.83;10.93;;;10.80;99.90;;;;;;5080525;28;20047;-77
2022/04/30 07:11:35;;;;;;;18.98;9.02;;;10.80;99.90;;;;;;5079321;28;20430;-77
2022/04/30 07:14:01;;;;;;;19.25;9.60;;;10.90;99.90;;;;;;5077048;28;20155;-77
2022/04/30 07:16:27;;;;;;;20.88;9.82;;;11.00;99.90;;;;;;5082731;28;20064;-78
2022/04/30 07:18:53;;;;;;;23.20;11.05;;;11.00;99.90;;;;;;5078820;28;20502;-78
2022/04/30 07:21:18;;;;;;;26.45;12.45;;;11.10;99.90;;;;;;5080954;28;20503;-78
2022/04/30 07:23:44;;;;;;;22.73;10.88;;;11.10;99.90;;;;;;5082797;28;20055;-78
2022/04/30 07:26:10;;;;;;;25.67;11.85;;;11.10;99.90;;;;;;5076800;28;20041;-78
2022/04/30 07:28:36;;;;;;;22.42;10.68;;;11.10;99.90;;;;;;5082212;28;20534;-77
2022/04/30 07:31:05;;;;;;;25.13;12.55;;;11.20;99.90;;;;;;5081878;28;20051;-77
2022/04/30 07:33:31;;;;;;;23.52;11.93;;;11.30;99.90;;;;;;5080853;28;20155;-77
2022/04/30 07:35:58;;;;;;;26.00;10.70;;;11.30;99.90;;;;;;5066802;28;20049;-77
2022/04/30 07:38:23;;;;;;;24.98;11.57;;;11.40;99.90;;;;;;5080870;28;20950;-78
2022/04/30 07:40:49;;;;;;;19.95;9.98;;;11.40;99.90;;;;;;5080986;28;20055;-76
2022/04/30 07:43:15;;;;;;;24.13;11.73;;;11.60;99.90;;;;;;5081505;28;20052;-76
2022/04/30 07:45:41;;;;;;;22.10;11.57;;;11.70;99.90;;;;;;5075017;28;20524;-76
2022/04/30 07:48:07;;;;;;;22.63;11.48;;;11.70;99.90;;;;;;5081453;28;20048;-75
2022/04/30 07:50:36;;;;;;;21.08;11.27;;;11.70;99.90;;;;;;5095199;27;20055;-76
2022/04/30 07:53:06;;;;;;;18.55;8.98;;;11.70;99.90;;;;;;5095375;27;20048;-76
2022/04/30 07:55:32;;;;;;;21.15;9.95;;;11.70;99.90;;;;;;5081089;28;20093;-77
2022/04/30 07:57:58;;;;;;;19.40;9.65;;;11.70;99.90;;;;;;5077690;28;20045;-77
2022/04/30 08:00:25;;;;;;;24.35;11.43;;;11.70;99.90;;;;;;5079488;28;20062;-76
2022/04/30 08:02:54;;;;;;;22.27;11.13;;;11.80;99.90;;;;;;5073212;28;20342;-82
2022/04/30 08:05:20;;;;;;;23.40;12.35;;;11.90;99.90;;;;;;5077726;28;20040;-75
2022/04/30 08:07:45;;;;;;;21.95;12.85;;;12.00;99.90;;;;;;5080035;28;20652;-75
2022/04/30 08:10:11;;;;;;;25.10;11.98;;;12.00;99.90;;;;;;5078383;28;20616;-74
2022/04/30 08:12:37;;;;;;;25.40;14.88;;;12.10;99.90;;;;;;5080347;28;20123;-75
2022/04/30 08:15:03;;;;;;;23.13;12.20;;;12.00;99.90;;;;;;5081450;28;20078;-75
2022/04/30 08:17:29;;;;;;;20.30;10.63;;;12.00;99.90;;;;;;5078174;28;20076;-75
2022/04/30 08:19:55;;;;;;;20.50;10.80;;;12.00;99.90;;;;;;5076715;28;20066;-75
2022/04/30 08:22:22;;;;;;;24.10;11.60;;;12.00;99.90;;;;;;5080794;28;20041;-75
2022/04/30 08:24:47;;;;;;;24.40;10.30;;;12.00;99.90;;;;;;5078392;28;20037;-76
2022/04/30 08:27:13;;;;;;;27.02;11.18;;;12.10;99.90;;;;;;5077719;28;20048;-75
2022/04/30 08:29:39;;;;;;;19.48;10.75;;;12.00;99.90;;;;;;5094916;27;20509;-76
2022/04/30 08:32:05;;;;;;;27.30;12.85;;;12.00;99.90;;;;;;5080709;28;20040;-76
2022/04/30 08:34:32;;;;;;;27.00;12.70;;;12.00;99.90;;;;;;5080181;28;20097;-77
2022/04/30 08:36:57;;;;;;;27.42;11.52;;;12.00;99.90;;;;;;5081255;28;20072;-75
2022/04/30 08:39:23;;;;;;;19.55;10.75;;;12.00;99.90;;;;;;5076113;28;20049;-75
2022/04/30 08:41:49;;;;;;;20.08;11.20;;;12.00;99.90;;;;;;5078468;28;20047;-75
2022/04/30 08:44:16;;;;;;;24.98;11.77;;;12.10;99.90;;;;;;5078650;28;20056;-76
2022/04/30 08:46:43;;;;;;;16.73;10.30;;;12.10;99.90;;;;;;5074141;28;20634;-76
2022/04/30 08:49:09;;;;;;;23.70;10.88;;;12.10;99.90;;;;;;5077479;28;20048;-75
2022/04/30 08:51:35;;;;;;;22.33;11.73;;;12.20;99.90;;;;;;5076713;28;20037;-77
2022/04/30 08:54:01;;;;;;;27.08;11.32;;;12.20;99.90;;;;;;5078230;28;20661;-75
2022/04/30 08:56:27;;;;;;;21.42;10.93;;;12.20;99.90;;;;;;5075054;28;20045;-76
2022/04/30 08:59:06;;;;;;;23.60;11.07;;;12.20;99.90;;;;;;5073945;28;20474;-77
2022/04/30 09:01:47;;;;;;;18.95;10.13;;;12.30;99.90;;;;;;5078603;28;20036;-78
2022/04/30 09:04:14;;;;;;;26.02;13.40;;;12.30;99.90;;;;;;5073883;28;20123;-76
2022/04/30 09:06:46;;;;;;;18.45;9.98;;;12.40;99.90;;;;;;5083026;28;20095;-75
2022/04/30 09:09:25;;;;;;;19.27;10.13;;;12.50;99.90;;;;;;5078197;28;20123;-76
2022/04/30 09:11:57;;;;;;;20.52;10.18;;;12.50;99.90;;;;;;5083259;28;20047;-75
2022/04/30 09:14:24;;;;;;;21.90;10.65;;;12.50;99.90;;;;;;5081959;28;20040;-75
2022/04/30 09:17:01;;;;;;;20.98;10.82;;;12.60;99.90;;;;;;5080039;28;20559;-73
2022/04/30 09:19:27;;;;;;;17.65;11.13;;;12.60;99.90;;;;;;5078444;28;20040;-76
2022/04/30 09:21:53;;;;;;;15.77;9.10;;;12.60;99.90;;;;;;5081185;28;20033;-75
2022/04/30 09:24:19;;;;;;;19.30;10.95;;;12.70;99.90;;;;;;5067347;28;20583;-75
2022/04/30 09:26:45;;;;;;;19.52;11.63;;;12.70;99.90;;;;;;5080680;28;20055;-75
2022/04/30 09:29:22;;;;;;;18.80;8.55;;;12.80;99.90;;;;;;5079457;28;20043;-75
2022/04/30 09:31:51;;;;;;;22.92;11.23;;;12.80;99.90;;;;;;5082609;28;20166;-75
2022/04/30 09:39:49;;;;;;;18.15;9.43;;;12.90;99.90;;;;;;5082626;28;20049;-76
2022/04/30 09:42:15;;;;;;;19.92;9.98;;;13.00;99.90;;;;;;5080571;28;20667;-75
2022/04/30 09:44:40;;;;;;;17.70;9.52;;;13.00;99.90;;;;;;5095026;27;20135;-76
2022/04/30 09:47:07;;;;;;;20.98;11.13;;;13.00;99.90;;;;;;5082610;28;20044;-75
2022/04/30 09:55:06;;;;;;;21.23;11.13;;;13.20;99.90;;;;;;5078116;28;20156;-75
2022/04/30 09:57:35;;;;;;;18.63;10.02;;;13.30;99.90;;;;;;5079068;28;20085;-76
2022/04/30 10:00:01;;;;;;;19.08;10.10;;;13.30;99.90;;;;;;5081590;28;20040;-74
2022/04/30 10:02:28;;;;;;;22.63;7.63;;;13.40;99.90;;;;;;5080127;28;20033;-75
2022/04/30 10:04:56;;;;;;;17.17;8.98;;;13.50;99.90;;;;;;5082327;28;20822;-75
2022/04/30 10:07:24;;;;;;;15.90;8.98;;;13.50;99.90;;;;;;5078972;28;20051;-75
2022/04/30 10:10:21;;;;;;;18.48;9.68;;;13.60;99.90;;;;;;5083002;28;21146;-75
2022/04/30 10:13:11;;;;;;;20.65;9.25;;;13.70;99.90;;;;;;5077687;28;20040;-75
2022/04/30 10:15:57;;;;;;;17.23;9.98;;;13.70;99.90;;;;;;5100062;27;20044;-75
2022/04/30 10:18:33;;;;;;;18.50;10.75;;;13.80;99.90;;;;;;5084653;28;20052;-75
2022/04/30 10:21:00;;;;;;;18.70;8.68;;;13.90;99.90;;;;;;5085826;28;20119;-75
2022/04/30 10:23:26;;;;;;;19.20;8.43;;;13.90;99.90;;;;;;5084408;28;20037;-76
2022/04/30 10:25:54;;;;;;;19.52;9.55;;;13.90;99.90;;;;;;5084419;28;20525;-75
2022/04/30 10:28:22;;;;;;;15.27;8.65;;;14.00;99.90;;;;;;5098937;27;20106;-75
2022/04/30 10:31:04;;;;;;;17.77;8.77;;;14.00;99.90;;;;;;5084918;28;20064;-75
2022/04/30 10:33:31;;;;;;;16.23;8.60;;;14.10;99.90;;;;;;5081871;28;20048;-75
2022/04/30 10:36:08;;;;;;;18.83;9.70;;;14.10;99.90;;;;;;5082760;28;20102;-75
2022/04/30 10:38:35;;;;;;;23.02;10.05;;;14.20;99.90;;;;;;5082652;28;20075;-76
2022/04/30 10:41:02;;;;;;;19.88;9.13;;;14.30;99.90;;;;;;5083555;28;20102;-76
2022/04/30 10:43:35;;;;;;;17.85;10.32;;;14.50;99.90;;;;;;5083879;28;20590;-75
2022/04/30 10:46:03;;;;;;;15.68;8.77;;;14.60;99.90;;;;;;5066428;28;20525;-75
2022/04/30 10:48:29;;;;;;;14.43;8.38;;;14.70;99.90;;;;;;5083577;28;20036;-75
2022/04/30 10:51:04;;;;;;;17.42;9.23;;;14.90;99.90;;;;;;5081053;28;20047;-74
2022/04/30 10:53:31;;;;;;;18.13;8.25;;;15.00;99.90;;;;;;5099743;27;20070;-75
2022/04/30 10:55:57;;;;;;;17.40;9.02;;;14.90;99.90;;;;;;5084334;28;20043;-75
2022/04/30 10:58:26;;;;;;;14.50;8.52;;;14.80;99.90;;;;;;5082620;28;20052;-75
2022/04/30 11:00:52;;;;;;;15.05;9.68;;;14.70;99.90;;;;;;5082014;28;20033;-76
2022/04/30 11:03:24;;;;;;;16.30;9.45;;;14.70;99.90;;;;;;5085157;28;20566;-75
2022/04/30 11:05:50;;;;;;;18.42;8.25;;;14.90;99.90;;;;;;5100592;27;20041;-75
2022/04/30 11:08:16;;;;;;;17.25;10.25;;;15.10;99.90;;;;;;5085045;28;20119;-75
2022/04/30 11:10:55;;;;;;;16.55;8.27;;;15.40;99.90;;;;;;5098766;27;20041;-75
2022/04/30 11:13:21;;;;;;;19.08;9.75;;;15.50;99.90;;;;;;5083891;28;20045;-75
2022/04/30 11:15:47;;;;;;;17.70;9.25;;;15.30;99.90;;;;;;5081460;28;20045;-75
2022/04/30 11:18:17;;;;;;;17.60;8.40;;;15.30;99.90;;;;;;5083678;28;20522;-76
2022/04/30 11:20:43;;;;;;;16.10;9.35;;;15.30;99.90;;;;;;5081262;28;20063;-75
2022/04/30 11:23:09;;;;;;;14.38;8.75;;;;;;;;;;5078420;28;20056;-77
2022/04/30 11:25:36;;;;;;;16.55;10.52;;;;;;;;;;5095089;27;20135;-79
2022/04/30 11:28:09;;;;;;;22.67;10.00;;;;;;;;;;5077973;28;20048;-77
2022/04/30 11:30:39;;;;;;;17.70;10.23;;;;;;;;;;5077116;28;20044;-76
2022/04/30 11:33:06;;;;;;;19.65;9.80;;;;;;;;;;5081364;28;20523;-75
2022/04/30 11:35:32;;;;;;;17.08;9.52;;;;;;;;;;5084787;28;20036;-76
2022/04/30 11:37:59;;;;;;;15.77;10.05;;;;;;;;;;5082328;28;20616;-77
2022/04/30 11:40:26;;;;;;;15.55;8.75;;;;;;;;;;5081747;28;20037;-79
2022/04/30 11:42:59;;;;;;;18.13;10.15;;;;;;;;;;5079780;28;20059;-78
2022/04/30 11:45:29;;;;;;;23.08;9.70;;;;;;;;;;5078775;28;20485;-75
2022/04/30 11:47:56;;;;;;;26.55;13.45;;;;;;;;;;5078376;28;20097;-76
2022/04/30 11:50:22;;;;;;;15.30;9.65;;;;;;;;;;5083516;28;20044;-76
2022/04/30 11:52:49;;;;;;;19.10;10.50;;;;;;;;;;5062715;28;20040;-76
2022/04/30 11:55:15;;;;;;;18.75;10.93;;;;;;;;;;5078273;28;20048;-76
2022/04/30 11:57:45;;;;;;;16.90;9.00;;;;;;;;;;5080939;28;20044;-75
2022/04/30 12:00:11;;;;;;;16.73;8.75;;;;;;;;;;5077130;28;20051;-77
2022/04/30 12:02:39;;;;;;;14.27;8.48;;;;;;;;;;5078429;28;20036;-77
2022/04/30 12:05:06;;;;;;;13.40;7.78;;;;;;;;;;5079179;28;20042;-76
2022/04/30 12:07:36;;;;;;;11.52;7.43;;;;;;;;;;5080107;28;20529;-76
2022/04/30 12:10:03;;;;;;;10.05;6.38;;;;;;;;;;5080955;28;20051;-77
2022/04/30 12:12:29;;;;;;;19.80;8.25;;;;;;;;;;5063502;28;20835;-76
2022/04/30 12:14:56;;;;;;;15.38;7.72;;;;;;;;;;5097960;27;20311;-77
2022/04/30 12:17:32;;;;;;;10.75;6.47;;;;;;;;;;5081250;28;20573;-76
2022/04/30 12:25:34;;;;;;;8.15;5.00;;;;;;;;;;5077538;28;20554;-76
2022/04/30 12:28:04;;;;;;;9.45;5.47;;;;;;;;;;5080252;28;20045;-83
2022/04/30 12:30:33;;;;;;;8.95;5.68;;;;;;;;;;5078740;28;20044;-77
2022/04/30 12:33:04;;;;;;;15.85;5.63;;;;;;;;;;5081725;28;20857;-78
2022/04/30 12:35:35;;;;;;;9.77;5.47;;;;;;;;;;5078332;28;20039;-77
2022/04/30 12:38:08;;;;;;;7.03;4.20;;;;;;;;;;5061961;28;20056;-78
2022/04/30 12:40:35;;;;;;;6.22;3.90;;;;;;;;;;5078468;28;20115;-78
2022/04/30 12:43:02;;;;;;;8.00;3.53;;;;;;;;;;5076536;28;20060;-77
2022/04/30 12:45:28;;;;;;;5.65;3.03;;;;;;;;;;5061982;28;20040;-78
2022/04/30 12:47:54;;;;;;;10.00;4.40;;;;;;;;;;5089744;27;20135;-78
2022/04/30 12:50:21;;;;;;;7.32;4.05;;;;;;;;;;5061949;28;22361;-76
2022/04/30 12:52:47;;;;;;;5.18;3.42;;;;;;;;;;5074347;28;20302;-76
2022/04/30 12:55:14;;;;;;;5.15;2.72;;;;;;;;;;5080036;28;21256;-75
2022/04/30 12:57:40;;;;;;;7.25;2.45;;;;;;;;;;5064753;28;20037;-75
2022/04/30 13:00:10;;;;;;;4.15;2.38;;;;;;;;;;5097704;27;20040;-76
2022/04/30 13:02:37;;;;;;;5.50;1.95;;;;;;;;;;5081358;28;20075;-76
2022/04/30 13:05:03;;;;;;;3.65;2.20;;;;;;;;;;5066427;28;20136;-75
2022/04/30 13:07:29;;;;;;;3.03;2.13;;;;;;;;;;5079058;28;20044;-75
2022/04/30 13:15:27;;;;;;;1.73;0.95;;;;;;;;;;5077191;28;20119;-76
2022/04/30 13:17:55;;;;;;;3.15;1.67;;;;;;;;;;5079900;28;20167;-76
2022/04/30 13:20:22;;;;;;;2.38;1.27;;;;;;;;;;5096573;27;20044;-76
2022/04/30 13:22:49;;;;;;;4.65;1.83;;;;;;;;;;5090722;27;20037;-77
2022/04/30 13:25:16;;;;;;;5.00;1.75;;;;;;;;;;5076200;28;20040;-76
2022/04/30 13:27:43;;;;;;;2.42;2.22;;;;;;;;;;5062049;28;20044;-77
2022/04/30 13:30:09;;;;;;;3.40;1.60;;;;;;;;;;5060299;28;20150;-77
2022/04/30 13:32:35;;;;;;;3.10;2.28;;;;;;;;;;5093250;27;20176;-77
2022/04/30 13:35:01;;;;;;;5.30;2.50;;;;;;;;;;5079672;28;20082;-77
2022/04/30 13:37:27;;;;;;;5.93;2.22;;;;;;;;;;5080528;28;20076;-77
2022/04/30 13:39:53;;;;;;;4.15;1.70;;;;;;;;;;5079975;28;20040;-76
2022/04/30 13:42:20;;;;;;;3.70;1.73;;;;;;;;;;5082141;28;20040;-77
2022/04/30 13:44:46;;;;;;;4.47;2.10;;;;;;;;;;5062718;28;20057;-77
2022/04/30 13:47:12;;;;;;;3.15;2.22;;;;;;;;;;5098238;27;20049;-77
2022/04/30 13:49:38;;;;;;;2.90;1.85;;;;;;;;;;5080565;28;20589;-76
2022/04/30 13:52:05;;;;;;;3.92;2.40;;;;;;;;;;5084458;28;20063;-77
2022/04/30 13:54:31;;;;;;;4.50;2.10;;;;;;;;;;5100693;27;20048;-77
2022/04/30 13:56:57;;;;;;;3.22;1.48;;;;;;;;;;5102032;27;20429;-77
2022/04/30 13:59:25;;;;;;;2.78;1.50;;;;;;;;;;5096837;27;20036;-77
2022/04/30 14:01:53;;;;;;;5.72;1.90;;;;;;;;;;5081847;28;20040;-77
2022/04/30 14:04:19;;;;;;;4.10;1.90;;;;;;;;;;5080314;28;21260;-77
2022/04/30 14:06:46;;;;;;;3.90;1.38;;;;;;;;;;5079354;28;20757;-78
2022/04/30 14:09:12;;;;;;;4.00;1.67;;;;;;;;;;5063456;28;20597;-78